Amber, Washington
Current Conditions -  °F | °C
As of 6:20 PM on Friday 19 Dec 2014 (Local Time) from KSKA Reporting Station
Overcast Overcast  
Wind Chill: 34°   Ceiling: 1600
Heat Index: 39°   Visibility: 10mi
Dew Point: 37°   Wind: 8mph
Humidity: 93%   Direction: 200°SSW
Pressure: 29.96"   Gusts: NA
Location:  47.411°N, 117.628°W
Report Text: KSKA 200220Z AUTO 20007KT 10SM FEW010 OVC016 04/03 A2996 RMK AO2
Loading
Personal Weather Stations






























Interactive Weather Map New forecast layout! Learn more

10-Day Weather Forecast

Advertisements
Track Severe Weather on mobile